Northern Expedition — CFN5364 — position and weather

sailwx.info

Track history (hours):
 
Tides and Currents Weather Stations Pressure Air Temp Water Temp Dewpoint Dewpoint Depression Visibility Wind Speed Wind Dir Waves Ship Positions

Northern Expedition

Last reported at 2017-Dec-11 10:58 UTC. Time now 2017-Dec-14 06:31 UTC.
Position N 53°52' W 131°02'.

Length 151 m; draft 5 m.

Type: Ship. MMSI: 316014054.

Date/timePositionNaut miles runAvg speedWind from/ knotsBaromVisibWave heightAir tempDewpointWater temp
2017-Dec-11 10:58N 53°52' W 131°02'715.4
2017-Dec-11 10:29N 53°57' W 130°53'715.3
2017-Dec-11 10:00N 54°03' W 130°45'713.1
2017-Dec-11 09:30N 54°03' W 130°34'3 6.4
2017-Dec-11 09:00N 54°06' W 130°30'3 5.4
2017-Dec-11 08:31N 54°08' W 130°27'3 7.0
2017-Dec-11 08:00N 54°10' W 130°22'714.0
2017-Dec-11 07:30N 54°17' W 130°22'3 5.0
2017-Dec-11 07:00N 54°19' W 130°21'1 2.3
2017-Dec-11 06:28N 54°18' W 130°22'0 0.0
2017-Dec-10 23:34N 54°18' W 130°21'0 4.5
2017-Dec-10 23:30N 54°18' W 130°22'611.3
2017-Dec-10 23:00N 54°12' W 130°21'612.2
2017-Dec-10 22:31N 54°06' W 130°18'714.4
2017-Dec-10 22:00N 53°60' W 130°13'713.4
2017-Dec-10 21:30N 53°54' W 130°07'10511.2
2017-Dec-10 12:10N 52°28' W 128°27'215.1
2017-Dec-10 12:00N 52°26' W 128°28'713.8
2017-Dec-10 11:30N 52°19' W 128°30'1711.6
2017-Dec-10 10:03N 52°09' W 128°08'010.1
2017-Dec-10 10:01N 52°09' W 128°08'0 0.1
2017-Dec-10 08:30N 52°08' W 128°08'911.1
2017-Dec-10 07:44N 52°04' W 127°56'312.2
2017-Dec-10 07:30N 52°01' W 127°55'714.8
2017-Dec-10 07:00N 51°54' W 127°56'815.6
2017-Dec-10 06:30N 51°46' W 127°56'815.6
2017-Dec-10 06:00N 51°38' W 127°54'815.8
2017-Dec-10 05:30N 51°31' W 127°52'916.1
2017-Dec-10 04:57N 51°22' W 127°52'716.2
2017-Dec-10 04:30N 51°14' W 127°53'816.0
2017-Dec-10 04:00N 51°07' W 127°49'816.1
2017-Dec-10 03:30N 50°59' W 127°45'714.6
2017-Dec-10 03:00N 50°54' W 127°38'815.2
2017-Dec-10 02:30N 50°49' W 127°28'611.6
2017-Dec-10 02:00N 50°44' W 127°28'0 0.4
2017-Dec-10 01:18N 50°44' W 127°27'0 0.0
2017-Dec-10 01:00N 50°44' W 127°27'0 0.0
2017-Dec-10 00:23N 50°44' W 127°27'0 0.0
2017-Dec-09 23:54N 50°44' W 127°27'0 0.0
2017-Dec-09 23:23N 50°44' W 127°27'0 0.0
2017-Dec-09 22:59N 50°44' W 127°27'0 0.0
2017-Dec-09 22:04N 50°44' W 127°27'0 0.0
2017-Dec-09 21:58N 50°44' W 127°27'0 0.0
2017-Dec-09 20:46N 50°44' W 127°27'0 0.0
2017-Dec-09 20:30N 50°44' W 127°27'0 0.0
2017-Dec-09 19:09N 50°44' W 127°27'0 0.0
2017-Dec-09 18:57N 50°44' W 127°27'0 0.0
2017-Dec-09 18:19N 50°44' W 127°27'0 0.0
2017-Dec-09 18:01N 50°44' W 127°27'0 0.1
2017-Dec-09 17:24N 50°44' W 127°28'0 0.1
2017-Dec-09 16:52N 50°44' W 127°27'0 1.0
2017-Dec-09 16:30N 50°44' W 127°28'612.1
2017-Dec-09 16:00N 50°50' W 127°28'816.4
2017-Dec-09 15:30N 50°54' W 127°39'816.3
2017-Dec-09 15:00N 51°00' W 127°47'816.4
2017-Dec-09 14:30N 51°08' W 127°50'815.8
2017-Dec-09 13:59N 51°16' W 127°53'816.0
2017-Dec-09 13:30N 51°24' W 127°52'815.9
2017-Dec-09 13:00N 51°32' W 127°52'816.1
2017-Dec-09 12:30N 51°40' W 127°55'816.1
2017-Dec-09 12:00N 51°48' W 127°57'816.3
2017-Dec-09 11:30N 51°56' W 127°56'1112.6
2017-Dec-09 10:37N 52°05' W 128°06'216.1
2017-Dec-09 10:30N 52°07' W 128°08'2 0.9
2017-Dec-09 08:36N 52°08' W 128°08'0 2.7
2017-Dec-09 08:30N 52°09' W 128°08'4 7.4
2017-Dec-09 07:54N 52°13' W 128°09'814.3
2017-Dec-09 07:21N 52°15' W 128°21'513.2
2017-Dec-09 07:01N 52°17' W 128°28'713.2
2017-Dec-09 06:30N 52°23' W 128°31'1312.9
2017-Dec-09 05:29N 52°37' W 128°30'1 0.9
2017-Dec-09 04:45N 52°37' W 128°32'8111.9
2017-Dec-08 21:56N 53°43' W 129°50'614.0
2017-Dec-08 21:30N 53°48' W 129°57'714.0
2017-Dec-08 21:00N 53°53' W 130°05'713.5
2017-Dec-08 20:30N 53°58' W 130°13'714.1
2017-Dec-08 20:00N 54°04' W 130°17'815.5
2017-Dec-08 19:30N 54°12' W 130°21'6 4.4
2017-Dec-08 18:04N 54°18' W 130°21'0 0.0
2017-Dec-08 15:51N 54°18' W 130°21'0 0.0
2017-Dec-08 15:17N 54°18' W 130°21'0 0.0
2017-Dec-08 14:59N 54°18' W 130°21'1 1.7
2017-Dec-08 14:27N 54°17' W 130°22'715.8
2017-Dec-08 14:00N 54°10' W 130°21'815.1
2017-Dec-08 13:30N 54°06' W 130°32'4 7.4
2017-Dec-08 13:00N 54°09' W 130°36'4 7.2
2017-Dec-08 12:30N 54°12' W 130°40'2 3.7
2017-Dec-08 12:00N 54°10' W 130°38'3 6.2
2017-Dec-08 11:30N 54°07' W 130°35'2 3.2
2017-Dec-08 11:00N 54°09' W 130°36'1 1.6
2017-Dec-08 10:30N 54°08' W 130°36'4 8.0
2017-Dec-08 10:00N 54°05' W 130°33'4 8.6
2017-Dec-08 09:30N 54°03' W 130°40'3 6.7
2017-Dec-08 09:00N 54°02' W 130°45'713.6
2017-Dec-08 08:30N 53°57' W 130°53'918.6
2017-Dec-08 08:00N 53°51' W 131°04'21 2.1
2017-Dec-07 22:11N 53°37' W 131°32'316.9
2017-Dec-07 21:59N 53°39' W 131°27'816.7
2017-Dec-07 21:31N 53°45' W 131°17'815.7
2017-Dec-07 21:01N 53°50' W 131°07'714.4
2017-Dec-07 20:30N 53°55' W 130°58'612.9
2017-Dec-07 20:00N 53°59' W 130°50'713.9
2017-Dec-07 19:30N 54°04' W 130°42'713.7
2017-Dec-07 19:00N 54°06' W 130°31'816.0
2017-Dec-07 18:30N 54°11' W 130°21'713.1
2017-Dec-07 18:00N 54°18' W 130°21'0 0.1
2017-Dec-07 16:09N 54°18' W 130°21'0 0.0
2017-Dec-07 15:51N 54°18' W 130°21'0 0.0
2017-Dec-07 15:26N 54°18' W 130°21'0 0.0
2017-Dec-07 14:50N 54°18' W 130°21'0 0.0
2017-Dec-07 14:26N 54°18' W 130°21'0 0.0
2017-Dec-07 13:56N 54°18' W 130°21'0 0.0
2017-Dec-07 12:34N 54°18' W 130°21'0 0.0
2017-Dec-07 12:28N 54°18' W 130°21'0 0.0
2017-Dec-07 11:46N 54°18' W 130°21'0 0.0
2017-Dec-07 11:28N 54°18' W 130°21'0 0.0
2017-Dec-07 10:57N 54°18' W 130°21'0 0.0
2017-Dec-07 10:27N 54°18' W 130°21'  
Track history (hours):
 
Tides and Currents Weather Stations Pressure Air Temp Water Temp Dewpoint Dewpoint Depression Visibility Wind Speed Wind Dir Waves Ship Positions

Northern Expedition

Last reported at 2017-Dec-11 10:58 UTC. Time now 2017-Dec-14 06:31 UTC.
Position N 53°52' W 131°02'.

Length 151 m; draft 5 m.

Type: Ship. MMSI: 316014054.

Date/timePositionNaut miles runAvg speedWind from/ knotsBaromVisibWave heightAir tempDewpointWater temp
2017-Dec-11 10:58N 53°52' W 131°02'715.4
2017-Dec-11 10:29N 53°57' W 130°53'715.3
2017-Dec-11 10:00N 54°03' W 130°45'713.1
2017-Dec-11 09:30N 54°03' W 130°34'3 6.4
2017-Dec-11 09:00N 54°06' W 130°30'3 5.4
2017-Dec-11 08:31N 54°08' W 130°27'3 7.0
2017-Dec-11 08:00N 54°10' W 130°22'714.0
2017-Dec-11 07:30N 54°17' W 130°22'3 5.0
2017-Dec-11 07:00N 54°19' W 130°21'1 2.3
2017-Dec-11 06:28N 54°18' W 130°22'0 0.0
2017-Dec-10 23:34N 54°18' W 130°21'0 4.5
2017-Dec-10 23:30N 54°18' W 130°22'611.3
2017-Dec-10 23:00N 54°12' W 130°21'612.2
2017-Dec-10 22:31N 54°06' W 130°18'714.4
2017-Dec-10 22:00N 53°60' W 130°13'713.4
2017-Dec-10 21:30N 53°54' W 130°07'10511.2
2017-Dec-10 12:10N 52°28' W 128°27'215.1
2017-Dec-10 12:00N 52°26' W 128°28'713.8
2017-Dec-10 11:30N 52°19' W 128°30'1711.6
2017-Dec-10 10:03N 52°09' W 128°08'010.1
2017-Dec-10 10:01N 52°09' W 128°08'0 0.1
2017-Dec-10 08:30N 52°08' W 128°08'911.1
2017-Dec-10 07:44N 52°04' W 127°56'312.2
2017-Dec-10 07:30N 52°01' W 127°55'714.8
2017-Dec-10 07:00N 51°54' W 127°56'815.6
2017-Dec-10 06:30N 51°46' W 127°56'815.6
2017-Dec-10 06:00N 51°38' W 127°54'815.8
2017-Dec-10 05:30N 51°31' W 127°52'916.1
2017-Dec-10 04:57N 51°22' W 127°52'716.2
2017-Dec-10 04:30N 51°14' W 127°53'816.0
2017-Dec-10 04:00N 51°07' W 127°49'816.1
2017-Dec-10 03:30N 50°59' W 127°45'714.6
2017-Dec-10 03:00N 50°54' W 127°38'815.2
2017-Dec-10 02:30N 50°49' W 127°28'611.6
2017-Dec-10 02:00N 50°44' W 127°28'0 0.4
2017-Dec-10 01:18N 50°44' W 127°27'0 0.0
2017-Dec-10 01:00N 50°44' W 127°27'0 0.0
2017-Dec-10 00:23N 50°44' W 127°27'0 0.0
2017-Dec-09 23:54N 50°44' W 127°27'0 0.0
2017-Dec-09 23:23N 50°44' W 127°27'0 0.0
2017-Dec-09 22:59N 50°44' W 127°27'0 0.0
2017-Dec-09 22:04N 50°44' W 127°27'0 0.0
2017-Dec-09 21:58N 50°44' W 127°27'0 0.0
2017-Dec-09 20:46N 50°44' W 127°27'0 0.0
2017-Dec-09 20:30N 50°44' W 127°27'0 0.0
2017-Dec-09 19:09N 50°44' W 127°27'0 0.0
2017-Dec-09 18:57N 50°44' W 127°27'0 0.0
2017-Dec-09 18:19N 50°44' W 127°27'0 0.0
2017-Dec-09 18:01N 50°44' W 127°27'0 0.1
2017-Dec-09 17:24N 50°44' W 127°28'0 0.1
2017-Dec-09 16:52N 50°44' W 127°27'0 1.0
2017-Dec-09 16:30N 50°44' W 127°28'612.1
2017-Dec-09 16:00N 50°50' W 127°28'816.4
2017-Dec-09 15:30N 50°54' W 127°39'816.3
2017-Dec-09 15:00N 51°00' W 127°47'816.4
2017-Dec-09 14:30N 51°08' W 127°50'815.8
2017-Dec-09 13:59N 51°16' W 127°53'816.0
2017-Dec-09 13:30N 51°24' W 127°52'815.9
2017-Dec-09 13:00N 51°32' W 127°52'816.1
2017-Dec-09 12:30N 51°40' W 127°55'816.1
2017-Dec-09 12:00N 51°48' W 127°57'816.3
2017-Dec-09 11:30N 51°56' W 127°56'1112.6
2017-Dec-09 10:37N 52°05' W 128°06'216.1
2017-Dec-09 10:30N 52°07' W 128°08'2 0.9
2017-Dec-09 08:36N 52°08' W 128°08'0 2.7
2017-Dec-09 08:30N 52°09' W 128°08'4 7.4
2017-Dec-09 07:54N 52°13' W 128°09'814.3
2017-Dec-09 07:21N 52°15' W 128°21'513.2
2017-Dec-09 07:01N 52°17' W 128°28'713.2
2017-Dec-09 06:30N 52°23' W 128°31'1312.9
2017-Dec-09 05:29N 52°37' W 128°30'1 0.9
2017-Dec-09 04:45N 52°37' W 128°32'8111.9
2017-Dec-08 21:56N 53°43' W 129°50'614.0
2017-Dec-08 21:30N 53°48' W 129°57'714.0
2017-Dec-08 21:00N 53°53' W 130°05'713.5
2017-Dec-08 20:30N 53°58' W 130°13'714.1
2017-Dec-08 20:00N 54°04' W 130°17'815.5
2017-Dec-08 19:30N 54°12' W 130°21'6 4.4
2017-Dec-08 18:04N 54°18' W 130°21'0 0.0
2017-Dec-08 15:51N 54°18' W 130°21'0 0.0
2017-Dec-08 15:17N 54°18' W 130°21'0 0.0
2017-Dec-08 14:59N 54°18' W 130°21'1 1.7
2017-Dec-08 14:27N 54°17' W 130°22'715.8
2017-Dec-08 14:00N 54°10' W 130°21'815.1
2017-Dec-08 13:30N 54°06' W 130°32'4 7.4
2017-Dec-08 13:00N 54°09' W 130°36'4 7.2
2017-Dec-08 12:30N 54°12' W 130°40'2 3.7
2017-Dec-08 12:00N 54°10' W 130°38'3 6.2
2017-Dec-08 11:30N 54°07' W 130°35'2 3.2
2017-Dec-08 11:00N 54°09' W 130°36'1 1.6
2017-Dec-08 10:30N 54°08' W 130°36'4 8.0
2017-Dec-08 10:00N 54°05' W 130°33'4 8.6
2017-Dec-08 09:30N 54°03' W 130°40'3 6.7
2017-Dec-08 09:00N 54°02' W 130°45'713.6
2017-Dec-08 08:30N 53°57' W 130°53'918.6
2017-Dec-08 08:00N 53°51' W 131°04'21 2.1
2017-Dec-07 22:11N 53°37' W 131°32'316.9
2017-Dec-07 21:59N 53°39' W 131°27'816.7
2017-Dec-07 21:31N 53°45' W 131°17'815.7
2017-Dec-07 21:01N 53°50' W 131°07'714.4
2017-Dec-07 20:30N 53°55' W 130°58'612.9
2017-Dec-07 20:00N 53°59' W 130°50'713.9
2017-Dec-07 19:30N 54°04' W 130°42'713.7
2017-Dec-07 19:00N 54°06' W 130°31'816.0
2017-Dec-07 18:30N 54°11' W 130°21'713.1
2017-Dec-07 18:00N 54°18' W 130°21'0 0.1
2017-Dec-07 16:09N 54°18' W 130°21'0 0.0
2017-Dec-07 15:51N 54°18' W 130°21'0 0.0
2017-Dec-07 15:26N 54°18' W 130°21'0 0.0
2017-Dec-07 14:50N 54°18' W 130°21'0 0.0
2017-Dec-07 14:26N 54°18' W 130°21'0 0.0
2017-Dec-07 13:56N 54°18' W 130°21'0 0.0
2017-Dec-07 12:34N 54°18' W 130°21'0 0.0
2017-Dec-07 12:28N 54°18' W 130°21'0 0.0
2017-Dec-07 11:46N 54°18' W 130°21'0 0.0
2017-Dec-07 11:28N 54°18' W 130°21'0 0.0
2017-Dec-07 10:57N 54°18' W 130°21'0 0.0
2017-Dec-07 10:27N 54°18' W 130°21'  

Dump ship's entire track history